createdAt,value
2016-08-20T00:00:24.667Z,1007.24
2016-08-20T00:01:24.624Z,1007.19
2016-08-20T00:02:24.582Z,1007.22
2016-08-20T00:03:24.536Z,1007.26
2016-08-20T00:04:24.701Z,1007.24
2016-08-20T00:05:24.446Z,1007.31
2016-08-20T00:06:24.404Z,1007.31
2016-08-20T00:07:24.364Z,1007.29
2016-08-20T00:08:24.314Z,1007.28
2016-08-20T00:09:24.270Z,1007.29
2016-08-20T00:10:24.426Z,1007.33
2016-08-20T00:11:24.181Z,1007.31
2016-08-20T00:12:24.135Z,1007.35
2016-08-20T00:13:24.091Z,1007.34
2016-08-20T00:14:24.042Z,1007.3
2016-08-20T00:15:24.002Z,1007.32
2016-08-20T00:16:23.959Z,1007.32
2016-08-20T00:17:23.913Z,1007.3
2016-08-20T00:18:23.873Z,1007.31
2016-08-20T00:19:23.822Z,1007.32
2016-08-20T00:20:23.783Z,1007.32
2016-08-20T00:21:23.733Z,1007.28
2016-08-20T00:22:23.695Z,1007.27
2016-08-20T00:23:23.648Z,1007.33
2016-08-20T00:24:23.601Z,1007.29
2016-08-20T00:25:23.553Z,1007.3
2016-08-20T00:26:23.511Z,1007.32
2016-08-20T00:27:23.466Z,1007.32
2016-08-20T00:28:23.422Z,1007.3
2016-08-20T00:29:23.382Z,1007.28
2016-08-20T00:30:23.332Z,1007.31
2016-08-20T00:31:23.291Z,1007.3
2016-08-20T00:32:23.243Z,1007.33
2016-08-20T00:33:23.197Z,1007.28
2016-08-20T00:34:23.149Z,1007.25
2016-08-20T00:35:23.108Z,1007.31
2016-08-20T00:36:23.070Z,1007.29
2016-08-20T00:37:23.020Z,1007.24
2016-08-20T00:38:22.977Z,1007.22
2016-08-20T00:39:22.930Z,1007.27
2016-08-20T00:40:22.884Z,1007.23
2016-08-20T00:41:22.844Z,1007.23
2016-08-20T00:42:22.801Z,1007.21
2016-08-20T00:43:22.754Z,1007.2
2016-08-20T00:44:22.712Z,1007.22
2016-08-20T00:45:22.663Z,1007.26
2016-08-20T00:46:22.814Z,1007.2
2016-08-20T00:47:22.645Z,1007.2
2016-08-20T00:48:22.527Z,1007.18
2016-08-20T00:49:22.481Z,1007.2
2016-08-20T00:50:22.440Z,1007.2
2016-08-20T00:51:22.391Z,1007.23
2016-08-20T00:52:22.355Z,1007.22
2016-08-20T00:53:22.303Z,1007.21
2016-08-20T00:54:22.263Z,1007.25
2016-08-20T00:55:22.213Z,1007.27
2016-08-20T00:56:22.170Z,1007.23
2016-08-20T00:57:22.123Z,1007.26
2016-08-20T00:58:22.076Z,1007.27
2016-08-20T00:59:22.033Z,1007.3
2016-08-20T01:00:21.990Z,1007.29
2016-08-20T01:01:21.941Z,1007.22
2016-08-20T01:02:21.896Z,1007.32
2016-08-20T01:03:21.854Z,1007.32
2016-08-20T01:04:21.813Z,1007.28
2016-08-20T01:05:21.763Z,1007.26
2016-08-20T01:06:21.724Z,1007.29
2016-08-20T01:07:21.671Z,1007.26
2016-08-20T01:08:21.636Z,1007.3
2016-08-20T01:09:21.581Z,1007.29
2016-08-20T01:10:21.545Z,1007.34
2016-08-20T01:11:21.497Z,1007.32
2016-08-20T01:12:21.447Z,1007.34
2016-08-20T01:13:21.401Z,1007.31
2016-08-20T01:14:21.362Z,1007.33
2016-08-20T01:15:21.313Z,1007.34
2016-08-20T01:16:21.271Z,1007.31
2016-08-20T01:17:21.224Z,1007.35
2016-08-20T01:18:21.183Z,1007.33
2016-08-20T01:19:21.129Z,1007.35
2016-08-20T01:20:21.092Z,1007.33
2016-08-20T01:21:21.043Z,1007.36
2016-08-20T01:22:21.403Z,1007.31
2016-08-20T01:23:20.954Z,1007.37
2016-08-20T01:24:20.903Z,1007.34
2016-08-20T01:25:20.958Z,1007.35
2016-08-20T01:26:21.022Z,1007.38
2016-08-20T01:27:20.774Z,1007.33
2016-08-20T01:28:20.727Z,1007.33
2016-08-20T01:29:20.684Z,1007.33
2016-08-20T01:30:20.643Z,1007.31
2016-08-20T01:31:20.592Z,1007.34
2016-08-20T01:32:20.549Z,1007.3
2016-08-20T01:33:20.513Z,1007.29
2016-08-20T01:34:20.472Z,1007.3
2016-08-20T01:35:20.414Z,1007.25
2016-08-20T01:36:20.368Z,1007.3
2016-08-20T01:37:20.320Z,1007.27
2016-08-20T01:38:20.275Z,1007.33
2016-08-20T01:39:20.439Z,1007.33
2016-08-20T01:40:20.196Z,1007.33
2016-08-20T01:41:20.342Z,1007.33
2016-08-20T01:42:20.097Z,1007.29
2016-08-20T01:43:20.054Z,1007.29
2016-08-20T01:44:20.009Z,1007.34
2016-08-20T01:45:19.972Z,1007.31
2016-08-20T01:46:19.920Z,1007.31
2016-08-20T01:47:19.873Z,1007.34
2016-08-20T01:48:19.829Z,1007.32
2016-08-20T01:49:19.782Z,1007.28
2016-08-20T01:50:19.736Z,1007.29
2016-08-20T01:51:19.707Z,1007.28
2016-08-20T01:52:19.650Z,1007.29
2016-08-20T01:53:19.602Z,1007.25
2016-08-20T01:54:19.554Z,1007.27
2016-08-20T01:55:19.511Z,1007.27
2016-08-20T01:56:19.470Z,1007.3
2016-08-20T01:57:19.418Z,1007.33
2016-08-20T01:58:19.373Z,1007.29
2016-08-20T01:59:19.330Z,1007.32
2016-08-20T02:00:19.283Z,1007.35
2016-08-20T02:01:19.238Z,1007.29
2016-08-20T02:02:19.194Z,1007.35
2016-08-20T02:03:19.154Z,1007.41
2016-08-20T02:04:19.104Z,1007.38
2016-08-20T02:05:19.057Z,1007.4
2016-08-20T02:06:19.015Z,1007.44
2016-08-20T02:07:18.973Z,1007.43
2016-08-20T02:08:18.924Z,1007.43
2016-08-20T02:09:18.884Z,1007.39
2016-08-20T02:10:18.835Z,1007.42
2016-08-20T02:11:18.790Z,1007.41
2016-08-20T02:12:18.742Z,1007.43
2016-08-20T02:13:18.704Z,1007.44
2016-08-20T02:14:18.653Z,1007.48
2016-08-20T02:15:18.611Z,1007.46
2016-08-20T02:16:18.562Z,1007.45
2016-08-20T02:17:18.518Z,1007.47
2016-08-20T02:18:18.492Z,1007.41
2016-08-20T02:19:18.427Z,1007.44
2016-08-20T02:20:18.426Z,1007.4
2016-08-20T02:21:18.341Z,1007.43
2016-08-20T02:22:18.297Z,1007.42
2016-08-20T02:23:18.255Z,1007.41
2016-08-20T02:24:18.204Z,1007.4
2016-08-20T02:25:18.164Z,1007.4
2016-08-20T02:26:18.312Z,1007.38
2016-08-20T02:27:18.067Z,1007.42
2016-08-20T02:28:18.023Z,1007.4
2016-08-20T02:29:17.981Z,1007.43
2016-08-20T02:30:17.932Z,1007.36
2016-08-20T02:31:17.895Z,1007.42
2016-08-20T02:32:17.843Z,1007.43
2016-08-20T02:33:17.803Z,1007.43
2016-08-20T02:34:17.755Z,1007.42
2016-08-20T02:35:17.704Z,1007.46
2016-08-20T02:36:17.664Z,1007.47
2016-08-20T02:37:17.817Z,1007.43
2016-08-20T02:38:17.575Z,1007.4
2016-08-20T02:39:17.528Z,1007.47
2016-08-20T02:40:17.485Z,1007.45
2016-08-20T02:41:17.437Z,1007.47
2016-08-20T02:42:17.394Z,1007.46
2016-08-20T02:43:17.355Z,1007.53
2016-08-20T02:44:17.304Z,1007.5
2016-08-20T02:45:17.260Z,1007.46
2016-08-20T02:46:17.214Z,1007.49
2016-08-20T02:47:17.174Z,1007.49
2016-08-20T02:48:17.123Z,1007.45
2016-08-20T02:49:17.082Z,1007.4
2016-08-20T02:50:17.032Z,1007.42
2016-08-20T02:51:17.006Z,1007.4
2016-08-20T02:52:17.141Z,1007.41
2016-08-20T02:53:16.897Z,1007.42
2016-08-20T02:54:16.853Z,1007.36
2016-08-20T02:55:16.814Z,1007.34
2016-08-20T02:56:16.764Z,1007.32
2016-08-20T02:57:16.718Z,1007.34
2016-08-20T02:58:16.676Z,1007.34
2016-08-20T02:59:16.633Z,1007.36
2016-08-20T03:00:16.585Z,1007.33
2016-08-20T03:01:16.538Z,1007.35
2016-08-20T03:02:16.494Z,1007.37
2016-08-20T03:03:16.452Z,1007.35
2016-08-20T03:04:16.406Z,1007.34
2016-08-20T03:05:16.371Z,1007.35
2016-08-20T03:06:16.317Z,1007.36
2016-08-20T03:07:16.268Z,1007.38
2016-08-20T03:08:16.425Z,1007.4
2016-08-20T03:09:16.384Z,1007.4
2016-08-20T03:10:16.134Z,1007.43
2016-08-20T03:11:16.093Z,1007.43
2016-08-20T03:12:16.042Z,1007.45
2016-08-20T03:13:15.997Z,1007.45
2016-08-20T03:14:15.954Z,1007.42
2016-08-20T03:15:15.912Z,1007.41
2016-08-20T03:16:15.865Z,1007.37
2016-08-20T03:17:15.825Z,1007.36
2016-08-20T03:18:15.777Z,1007.37
2016-08-20T03:19:15.734Z,1007.34
2016-08-20T03:20:15.686Z,1007.33
2016-08-20T03:21:15.638Z,1007.36
2016-08-20T03:22:15.598Z,1007.34
2016-08-20T03:23:15.552Z,1007.32
2016-08-20T03:24:15.706Z,1007.36
2016-08-20T03:25:15.460Z,1007.33
2016-08-20T03:26:15.618Z,1007.33
2016-08-20T03:27:15.374Z,1007.29
2016-08-20T03:28:15.323Z,1007.27
2016-08-20T03:29:15.278Z,1007.28
2016-08-20T03:30:15.233Z,1007.26
2016-08-20T03:31:15.194Z,1007.22
2016-08-20T03:32:15.144Z,1007.25
2016-08-20T03:33:15.301Z,1007.25
2016-08-20T03:34:15.065Z,1007.29
2016-08-20T03:35:15.008Z,1007.29
2016-08-20T03:36:14.964Z,1007.3
2016-08-20T03:37:14.915Z,1007.32
2016-08-20T03:38:14.875Z,1007.28
2016-08-20T03:39:14.829Z,1007.31
2016-08-20T03:40:14.985Z,1007.29
2016-08-20T03:41:14.743Z,1007.3
2016-08-20T03:42:14.699Z,1007.34
2016-08-20T03:43:14.654Z,1007.45
2016-08-20T03:44:14.604Z,1007.4
2016-08-20T03:45:14.557Z,1007.41
2016-08-20T03:46:14.512Z,1007.42
2016-08-20T03:47:14.466Z,1007.47
2016-08-20T03:48:14.425Z,1007.54
2016-08-20T03:49:14.383Z,1007.53
2016-08-20T03:50:14.331Z,1007.56
2016-08-20T03:51:14.286Z,1007.61
2016-08-20T03:52:14.243Z,1007.59
2016-08-20T03:53:14.227Z,1007.6
2016-08-20T03:54:14.151Z,1007.6
2016-08-20T03:55:14.149Z,1007.59
2016-08-20T03:56:14.065Z,1007.57
2016-08-20T03:57:14.018Z,1007.6
2016-08-20T03:58:13.971Z,1007.58
2016-08-20T03:59:13.925Z,1007.57
2016-08-20T04:00:13.886Z,1007.55
2016-08-20T04:01:13.833Z,1007.55
2016-08-20T04:02:13.790Z,1007.53
2016-08-20T04:03:13.758Z,1007.52
2016-08-20T04:04:13.705Z,1007.54
2016-08-20T04:05:13.655Z,1007.53
2016-08-20T04:06:13.810Z,1007.5
2016-08-20T04:07:13.564Z,1007.44
2016-08-20T04:08:13.519Z,1007.46
2016-08-20T04:09:13.474Z,1007.47
2016-08-20T04:10:13.426Z,1007.53
2016-08-20T04:11:13.385Z,1007.52
2016-08-20T04:12:13.344Z,1007.55
2016-08-20T04:13:13.296Z,1007.55
2016-08-20T04:14:13.255Z,1007.56
2016-08-20T04:15:13.204Z,1007.55
2016-08-20T04:16:13.157Z,1007.6
2016-08-20T04:17:13.112Z,1007.59
2016-08-20T04:18:13.076Z,1007.64
2016-08-20T04:19:13.022Z,1007.63
2016-08-20T04:20:12.986Z,1007.64
2016-08-20T04:21:12.935Z,1007.63
2016-08-20T04:22:13.085Z,1007.67
2016-08-20T04:23:12.838Z,1007.66
2016-08-20T04:24:12.795Z,1007.67
2016-08-20T04:25:12.749Z,1007.66
2016-08-20T04:26:12.703Z,1007.65
2016-08-20T04:27:12.658Z,1007.66
2016-08-20T04:28:12.625Z,1007.68
2016-08-20T04:29:12.570Z,1007.67
2016-08-20T04:30:12.518Z,1007.66
2016-08-20T04:31:12.674Z,1007.65
2016-08-20T04:32:12.630Z,1007.65
2016-08-20T04:33:12.395Z,1007.68
2016-08-20T04:34:12.339Z,1007.68
2016-08-20T04:35:12.294Z,1007.68
2016-08-20T04:36:12.250Z,1007.66
2016-08-20T04:37:12.202Z,1007.68
2016-08-20T04:38:12.352Z,1007.64
2016-08-20T04:39:12.115Z,1007.65
2016-08-20T04:40:12.069Z,1007.6
2016-08-20T04:41:12.018Z,1007.55
2016-08-20T04:42:11.978Z,1007.59
2016-08-20T04:43:11.928Z,1007.5
2016-08-20T04:44:11.883Z,1007.53
2016-08-20T04:45:11.834Z,1007.53
2016-08-20T04:46:11.789Z,1007.5
2016-08-20T04:47:11.743Z,1007.56
2016-08-20T04:48:11.702Z,1007.57
2016-08-20T04:49:11.654Z,1007.62
2016-08-20T04:50:11.605Z,1007.61
2016-08-20T04:51:11.767Z,1007.6
2016-08-20T04:52:11.522Z,1007.63
2016-08-20T04:53:11.673Z,1007.65
2016-08-20T04:54:11.427Z,1007.72
2016-08-20T04:55:11.378Z,1007.66
2016-08-20T04:56:11.333Z,1007.71
2016-08-20T04:57:11.485Z,1007.69
2016-08-20T04:58:11.242Z,1007.67
2016-08-20T04:59:11.199Z,1007.66
2016-08-20T05:00:11.154Z,1007.72
2016-08-20T05:01:11.104Z,1007.75
2016-08-20T05:02:11.054Z,1007.76
2016-08-20T05:03:11.008Z,1007.8
2016-08-20T05:04:10.962Z,1007.77
2016-08-20T05:05:10.921Z,1007.78
2016-08-20T05:06:10.870Z,1007.8
2016-08-20T05:07:10.838Z,1007.81
2016-08-20T05:08:10.778Z,1007.8
2016-08-20T05:09:10.755Z,1007.8
2016-08-20T05:10:10.698Z,1007.81
2016-08-20T05:11:10.850Z,1007.86
2016-08-20T05:12:10.598Z,1007.87
2016-08-20T05:13:10.563Z,1007.89
2016-08-20T05:14:10.502Z,1007.92
2016-08-20T05:15:10.470Z,1007.91
2016-08-20T05:16:10.413Z,1007.99
2016-08-20T05:17:10.368Z,1007.95
2016-08-20T05:18:10.324Z,1007.93
2016-08-20T05:19:10.279Z,1007.93
2016-08-20T05:20:10.232Z,1008.02
2016-08-20T05:21:10.189Z,1007.98
2016-08-20T05:22:10.141Z,1008.01
2016-08-20T05:23:10.094Z,1007.98
2016-08-20T05:24:10.048Z,1007.98
2016-08-20T05:25:10.002Z,1008.02
2016-08-20T05:26:09.960Z,1008.05
2016-08-20T05:27:09.913Z,1007.99
2016-08-20T05:28:09.873Z,1008.01
2016-08-20T05:29:10.016Z,1008
2016-08-20T05:30:09.973Z,1008.01
2016-08-20T05:31:09.729Z,1008.01
2016-08-20T05:32:09.682Z,1008.02
2016-08-20T05:33:09.633Z,1007.97
2016-08-20T05:34:09.593Z,1007.91
2016-08-20T05:35:09.542Z,1007.88
2016-08-20T05:36:09.495Z,1007.9
2016-08-20T05:37:09.451Z,1007.88
2016-08-20T05:38:09.423Z,1007.88
2016-08-20T05:39:09.359Z,1007.88
2016-08-20T05:40:09.315Z,1007.87
2016-08-20T05:41:09.266Z,1007.88
2016-08-20T05:42:09.222Z,1007.91
2016-08-20T05:43:09.172Z,1007.9
2016-08-20T05:44:09.125Z,1007.9
2016-08-20T05:45:09.097Z,1007.92
2016-08-20T05:46:09.036Z,1007.92
2016-08-20T05:47:08.994Z,1007.9
2016-08-20T05:48:08.955Z,1007.91
2016-08-20T05:49:08.901Z,1007.96
2016-08-20T05:50:09.063Z,1007.96
2016-08-20T05:51:08.808Z,1007.96
2016-08-20T05:52:08.760Z,1007.95
2016-08-20T05:53:08.733Z,1007.89
2016-08-20T05:54:08.670Z,1007.93
2016-08-20T05:55:08.632Z,1007.93
2016-08-20T05:56:08.583Z,1007.95
2016-08-20T05:57:08.535Z,1007.94
2016-08-20T05:58:08.490Z,1007.94
2016-08-20T05:59:08.448Z,1007.99
2016-08-20T06:00:08.398Z,1008.02
2016-08-20T06:01:08.353Z,1007.98
2016-08-20T06:02:08.330Z,1008.01
2016-08-20T06:03:08.263Z,1008.03
2016-08-20T06:04:08.284Z,1008.08
2016-08-20T06:05:08.173Z,1008.05
2016-08-20T06:06:08.128Z,1008.09
2016-08-20T06:07:08.083Z,1008.07
2016-08-20T06:08:08.032Z,1008.08
2016-08-20T06:09:07.994Z,1008.04
2016-08-20T06:10:07.944Z,1008.04
2016-08-20T06:11:07.904Z,1008.05
2016-08-20T06:12:07.858Z,1008.03
2016-08-20T06:13:07.816Z,1008.04
2016-08-20T06:14:07.760Z,1007.98
2016-08-20T06:15:07.713Z,1008
2016-08-20T06:16:07.671Z,1007.99
2016-08-20T06:17:07.623Z,1007.93
2016-08-20T06:18:07.579Z,1007.93
2016-08-20T06:19:07.533Z,1007.93
2016-08-20T06:20:07.484Z,1008
2016-08-20T06:21:07.442Z,1007.95
2016-08-20T06:22:07.391Z,1007.97
2016-08-20T06:23:07.354Z,1008
2016-08-20T06:24:07.302Z,1008.02
2016-08-20T06:25:07.262Z,1008.03
2016-08-20T06:26:07.212Z,1008.05
2016-08-20T06:27:07.164Z,1008.09
2016-08-20T06:28:07.125Z,1008.13
2016-08-20T06:29:07.078Z,1008.16
2016-08-20T06:30:07.033Z,1008.09
2016-08-20T06:31:06.988Z,1008.1
2016-08-20T06:32:06.938Z,1008.09
2016-08-20T06:33:06.902Z,1008.09
2016-08-20T06:34:06.848Z,1008.06
2016-08-20T06:35:06.804Z,1008.07
2016-08-20T06:36:06.754Z,1008.04
2016-08-20T06:37:06.710Z,1008.01
2016-08-20T06:38:06.671Z,1008.02
2016-08-20T06:39:06.625Z,1007.97
2016-08-20T06:40:06.583Z,1007.98
2016-08-20T06:41:06.532Z,1007.99
2016-08-20T06:42:06.485Z,1007.96
2016-08-20T06:43:06.441Z,1007.96
2016-08-20T06:44:06.398Z,1007.96
2016-08-20T06:45:06.349Z,1007.93
2016-08-20T06:46:06.309Z,1007.99
2016-08-20T06:47:06.263Z,1008
2016-08-20T06:48:06.217Z,1007.99
2016-08-20T06:49:06.169Z,1008.03
2016-08-20T06:50:06.122Z,1008.01
2016-08-20T06:51:06.083Z,1008.04
2016-08-20T06:52:06.033Z,1008.03
2016-08-20T06:53:05.988Z,1008.05
2016-08-20T06:54:05.944Z,1008.05
2016-08-20T06:55:05.898Z,1008.04
2016-08-20T06:56:05.854Z,1008.06
2016-08-20T06:57:05.804Z,1008.04
2016-08-20T06:58:05.763Z,1008.02
2016-08-20T06:59:05.716Z,1007.99
2016-08-20T07:00:05.669Z,1008
2016-08-20T07:01:05.630Z,1008.03
2016-08-20T07:02:05.579Z,1008.02
2016-08-20T07:03:05.537Z,1008.06
2016-08-20T07:04:05.492Z,1008.06
2016-08-20T07:05:05.443Z,1008.04
2016-08-20T07:06:05.404Z,1008.07
2016-08-20T07:07:05.361Z,1008.1
2016-08-20T07:08:05.362Z,1008.15
2016-08-20T07:09:05.273Z,1008.16
2016-08-20T07:10:05.223Z,1008.2
2016-08-20T07:11:05.176Z,1008.16
2016-08-20T07:12:05.142Z,1008.19
2016-08-20T07:13:05.088Z,1008.23
2016-08-20T07:14:05.248Z,1008.25
2016-08-20T07:15:04.997Z,1008.2
2016-08-20T07:16:05.156Z,1008.25
2016-08-20T07:17:04.907Z,1008.27
2016-08-20T07:18:04.909Z,1008.27
2016-08-20T07:19:04.823Z,1008.29
2016-08-20T07:20:04.782Z,1008.3
2016-08-20T07:21:04.736Z,1008.31
2016-08-20T07:22:04.692Z,1008.35
2016-08-20T07:23:04.637Z,1008.32
2016-08-20T07:24:04.595Z,1008.33
2016-08-20T07:25:04.554Z,1008.34
2016-08-20T07:26:04.507Z,1008.34
2016-08-20T07:27:04.461Z,1008.38
2016-08-20T07:28:04.416Z,1008.38
2016-08-20T07:29:04.369Z,1008.4
2016-08-20T07:30:04.321Z,1008.44
2016-08-20T07:31:04.284Z,1008.45
2016-08-20T07:32:04.443Z,1008.39
2016-08-20T07:33:04.390Z,1008.42
2016-08-20T07:34:04.146Z,1008.39
2016-08-20T07:35:04.105Z,1008.42
2016-08-20T07:36:04.062Z,1008.4
2016-08-20T07:37:04.012Z,1008.46
2016-08-20T07:38:03.963Z,1008.45
2016-08-20T07:39:03.929Z,1008.45
2016-08-20T07:40:03.884Z,1008.44
2016-08-20T07:41:03.833Z,1008.44
2016-08-20T07:42:03.793Z,1008.46
2016-08-20T07:43:03.741Z,1008.46
2016-08-20T07:44:03.692Z,1008.49
2016-08-20T07:45:03.647Z,1008.48
2016-08-20T07:46:03.807Z,1008.53
2016-08-20T07:47:03.563Z,1008.56
2016-08-20T07:48:03.521Z,1008.56
2016-08-20T07:49:03.472Z,1008.55
2016-08-20T07:50:03.432Z,1008.56
2016-08-20T07:51:03.381Z,1008.58
2016-08-20T07:52:03.349Z,1008.63
2016-08-20T07:53:03.303Z,1008.54
2016-08-20T07:54:03.254Z,1008.63
2016-08-20T07:55:03.203Z,1008.59
2016-08-20T07:56:03.358Z,1008.65
2016-08-20T07:57:03.112Z,1008.68
2016-08-20T07:58:03.075Z,1008.68
2016-08-20T07:59:03.024Z,1008.66
2016-08-20T08:00:03.004Z,1008.62
2016-08-20T08:01:03.143Z,1008.62
2016-08-20T08:02:02.890Z,1008.66
2016-08-20T08:03:02.848Z,1008.64
2016-08-20T08:04:02.813Z,1008.62
2016-08-20T08:05:02.762Z,1008.63
2016-08-20T08:06:02.715Z,1008.6
2016-08-20T08:07:02.667Z,1008.61
2016-08-20T08:08:02.632Z,1008.57
2016-08-20T08:09:02.634Z,1008.58
2016-08-20T08:10:02.541Z,1008.59
2016-08-20T08:11:02.491Z,1008.59
2016-08-20T08:12:02.500Z,1008.59
2016-08-20T08:13:02.406Z,1008.59
2016-08-20T08:14:02.358Z,1008.56
2016-08-20T08:15:02.317Z,1008.6
2016-08-20T08:16:02.269Z,1008.61
2016-08-20T08:17:02.333Z,1008.58
2016-08-20T08:18:02.188Z,1008.62
2016-08-20T08:19:02.138Z,1008.59
2016-08-20T08:20:02.095Z,1008.63
2016-08-20T08:21:02.050Z,1008.62
2016-08-20T08:22:02.011Z,1008.57
2016-08-20T08:23:01.961Z,1008.58
2016-08-20T08:24:01.954Z,1008.56
2016-08-20T08:25:01.871Z,1008.57
2016-08-20T08:26:01.827Z,1008.55
2016-08-20T08:27:01.778Z,1008.53
2016-08-20T08:28:01.743Z,1008.52
2016-08-20T08:29:01.693Z,1008.52
2016-08-20T08:30:01.653Z,1008.49
2016-08-20T08:31:01.609Z,1008.49
2016-08-20T08:32:01.563Z,1008.49
2016-08-20T08:33:01.521Z,1008.51
2016-08-20T08:34:01.474Z,1008.44
2016-08-20T08:35:01.433Z,1008.43
2016-08-20T08:36:01.393Z,1008.44
2016-08-20T08:37:01.342Z,1008.45
2016-08-20T08:38:01.349Z,1008.45
2016-08-20T08:39:01.455Z,1008.43
2016-08-20T08:40:01.415Z,1008.41
2016-08-20T08:41:01.162Z,1008.41
2016-08-20T08:42:01.122Z,1008.41
2016-08-20T08:43:01.277Z,1008.41
2016-08-20T08:44:01.037Z,1008.37
2016-08-20T08:45:00.994Z,1008.42
2016-08-20T08:46:00.950Z,1008.42
2016-08-20T08:47:00.904Z,1008.44
2016-08-20T08:48:00.856Z,1008.47
2016-08-20T08:49:00.814Z,1008.44
2016-08-20T08:50:00.770Z,1008.48
2016-08-20T08:51:00.723Z,1008.47
2016-08-20T08:52:00.683Z,1008.54
2016-08-20T08:53:00.643Z,1008.51
2016-08-20T08:54:00.792Z,1008.55
2016-08-20T08:55:00.556Z,1008.53
2016-08-20T08:56:00.509Z,1008.52
2016-08-20T08:57:00.666Z,1008.56
2016-08-20T08:58:00.418Z,1008.53
2016-08-20T08:59:00.374Z,1008.51
2016-08-20T09:00:00.327Z,1008.48
2016-08-20T09:01:00.291Z,1008.46
2016-08-20T09:02:00.446Z,1008.46
2016-08-20T09:03:00.213Z,1008.43
2016-08-20T09:04:00.160Z,1008.44
2016-08-20T09:05:00.313Z,1008.45
2016-08-20T09:06:00.269Z,1008.49
2016-08-20T09:07:00.025Z,1008.52
2016-08-20T09:07:59.982Z,1008.57
2016-08-20T09:08:59.944Z,1008.6
2016-08-20T09:09:59.890Z,1008.61
2016-08-20T09:10:59.863Z,1008.59
2016-08-20T09:12:00.015Z,1008.59
2016-08-20T09:12:59.789Z,1008.55
2016-08-20T09:13:59.723Z,1008.51
2016-08-20T09:14:59.681Z,1008.46
2016-08-20T09:15:59.831Z,1008.46
2016-08-20T09:16:59.789Z,1008.47
2016-08-20T09:17:59.544Z,1008.45
2016-08-20T09:18:59.501Z,1008.5
2016-08-20T09:19:59.456Z,1008.45
2016-08-20T09:20:59.410Z,1008.52
2016-08-20T09:21:59.373Z,1008.57
2016-08-20T09:22:59.530Z,1008.55
2016-08-20T09:23:59.293Z,1008.48
2016-08-20T09:24:59.238Z,1008.51
2016-08-20T09:25:59.195Z,1008.54
2016-08-20T09:26:59.155Z,1008.5
2016-08-20T09:27:59.105Z,1008.51
2016-08-20T09:28:59.063Z,1008.52
2016-08-20T09:29:59.019Z,1008.46
2016-08-20T09:30:58.981Z,1008.51
2016-08-20T09:31:58.932Z,1008.53
2016-08-20T09:32:58.920Z,1008.48
2016-08-20T09:33:58.846Z,1008.55
2016-08-20T09:34:58.805Z,1008.59
2016-08-20T09:35:58.963Z,1008.54
2016-08-20T09:36:58.718Z,1008.57
2016-08-20T09:37:59.082Z,1008.51
2016-08-20T09:38:58.828Z,1008.45
2016-08-20T09:39:58.587Z,1008.45
2016-08-20T09:40:58.543Z,1008.47
2016-08-20T09:41:58.503Z,1008.5
2016-08-20T09:42:58.464Z,1008.51
2016-08-20T09:43:58.411Z,1008.47
2016-08-20T09:44:58.373Z,1008.42
2016-08-20T09:45:58.326Z,1008.41
2016-08-20T09:46:58.689Z,1008.41
2016-08-20T09:47:58.243Z,1008.45
2016-08-20T09:48:58.203Z,1008.42
2016-08-20T09:49:58.157Z,1008.41
2016-08-20T09:50:58.116Z,1008.51
2016-08-20T09:51:58.071Z,1008.52
2016-08-20T09:52:58.026Z,1008.52
2016-08-20T09:53:57.982Z,1008.43
2016-08-20T09:54:57.937Z,1008.42
2016-08-20T09:55:57.904Z,1008.46
2016-08-20T09:56:57.855Z,1008.4
2016-08-20T09:57:58.213Z,1008.43
2016-08-20T09:58:57.766Z,1008.49
2016-08-20T09:59:57.724Z,1008.48
2016-08-20T10:00:57.879Z,1008.43
2016-08-20T10:01:57.636Z,1008.41
2016-08-20T10:02:57.595Z,1008.4
2016-08-20T10:03:57.555Z,1008.44
2016-08-20T10:04:57.507Z,1008.47
2016-08-20T10:05:57.469Z,1008.53
2016-08-20T10:06:57.423Z,1008.48
2016-08-20T10:07:57.379Z,1008.5
2016-08-20T10:08:57.333Z,1008.47
2016-08-20T10:09:57.288Z,1008.46
2016-08-20T10:10:57.252Z,1008.45
2016-08-20T10:11:57.213Z,1008.47
2016-08-20T10:12:57.162Z,1008.44
2016-08-20T10:13:57.122Z,1008.45
2016-08-20T10:14:57.080Z,1008.4
2016-08-20T10:15:57.031Z,1008.37
2016-08-20T10:16:56.994Z,1008.39
2016-08-20T10:17:56.952Z,1008.46
2016-08-20T10:18:56.901Z,1008.47
2016-08-20T10:19:56.861Z,1008.47
2016-08-20T10:20:56.819Z,1008.51
2016-08-20T10:21:56.776Z,1008.46
2016-08-20T10:22:56.731Z,1008.5
2016-08-20T10:23:56.692Z,1008.41
2016-08-20T10:24:56.850Z,1008.43
2016-08-20T10:25:56.599Z,1008.41
2016-08-20T10:26:56.557Z,1008.48
2016-08-20T10:27:56.517Z,1008.49
2016-08-20T10:28:56.678Z,1008.42
2016-08-20T10:29:56.629Z,1008.45
2016-08-20T10:30:56.388Z,1008.49
2016-08-20T10:31:56.343Z,1008.52
2016-08-20T10:32:56.302Z,1008.51
2016-08-20T10:33:56.489Z,1008.6
2016-08-20T10:34:56.215Z,1008.64
2016-08-20T10:35:56.176Z,1008.64
2016-08-20T10:37:56.293Z,1008.73
2016-08-20T10:38:56.254Z,1008.85
2016-08-20T10:39:56.003Z,1008.87
2016-08-20T10:40:56.161Z,1008.88
2016-08-20T10:41:55.913Z,1008.85
2016-08-20T10:42:55.871Z,1008.82
2016-08-20T10:43:56.033Z,1008.65
2016-08-20T10:44:55.783Z,1008.61
2016-08-20T10:45:55.740Z,1008.58
2016-08-20T10:46:55.700Z,1008.53
2016-08-20T10:47:55.657Z,1008.53
2016-08-20T10:48:55.610Z,1008.58
2016-08-20T10:49:55.573Z,1008.66
2016-08-20T10:50:55.526Z,1008.73
2016-08-20T10:51:55.482Z,1008.77
2016-08-20T10:52:55.436Z,1008.82
2016-08-20T10:53:55.395Z,1008.82
2016-08-20T10:54:55.356Z,1008.87
2016-08-20T10:55:55.310Z,1008.91
2016-08-20T10:56:55.268Z,1008.85
2016-08-20T10:57:55.218Z,1008.73
2016-08-20T10:58:55.185Z,1008.7
2016-08-20T10:59:55.143Z,1008.69
2016-08-20T11:00:55.093Z,1008.72
2016-08-20T11:01:55.249Z,1008.74
2016-08-20T11:02:55.007Z,1008.72
2016-08-20T11:03:54.971Z,1008.69
2016-08-20T11:04:54.921Z,1008.7
2016-08-20T11:05:54.875Z,1008.71
2016-08-20T11:06:55.041Z,1008.79
2016-08-20T11:07:54.789Z,1008.79
2016-08-20T11:08:54.751Z,1008.84
2016-08-20T11:09:54.714Z,1008.85
2016-08-20T11:10:54.674Z,1008.83
2016-08-20T11:11:54.618Z,1008.85
2016-08-20T11:12:54.581Z,1008.81
2016-08-20T11:13:54.534Z,1008.69
2016-08-20T11:14:54.493Z,1008.59
2016-08-20T11:15:54.451Z,1008.53
2016-08-20T11:16:54.405Z,1008.54
2016-08-20T11:17:54.374Z,1008.68
2016-08-20T11:18:54.313Z,1008.74
2016-08-20T11:19:54.276Z,1008.81
2016-08-20T11:20:54.242Z,1008.76
2016-08-20T11:21:54.392Z,1008.86
2016-08-20T11:22:54.156Z,1009.03
2016-08-20T11:23:54.099Z,1009.02
2016-08-20T11:24:54.062Z,1008.89
2016-08-20T11:25:54.017Z,1008.84
2016-08-20T11:26:54.178Z,1008.78
2016-08-20T11:27:53.935Z,1008.8
2016-08-20T11:28:54.095Z,1008.86
2016-08-20T11:29:53.841Z,1008.88
2016-08-20T11:30:53.812Z,1008.89
2016-08-20T11:31:53.762Z,1008.82
2016-08-20T11:32:53.723Z,1008.91
2016-08-20T11:33:53.675Z,1009.03
2016-08-20T11:34:53.629Z,1009.11
2016-08-20T11:35:53.593Z,1009.13
2016-08-20T11:36:54.749Z,1009.17
2016-08-20T11:37:53.501Z,1009.19
2016-08-20T11:38:53.457Z,1009.32
2016-08-20T11:39:53.622Z,1009.4
2016-08-20T11:40:53.376Z,1009.46
2016-08-20T11:41:53.335Z,1009.4
2016-08-20T11:42:53.293Z,1009.41
2016-08-20T11:43:53.246Z,1009.08
2016-08-20T11:44:53.201Z,1009.01
2016-08-20T11:45:53.163Z,1008.89
2016-08-20T11:46:53.124Z,1008.84
2016-08-20T11:47:53.074Z,1008.93
2016-08-20T11:48:53.230Z,1008.88
2016-08-20T11:49:52.985Z,1008.93
2016-08-20T11:50:53.142Z,1008.92
2016-08-20T11:51:52.904Z,1008.83
2016-08-20T11:52:52.859Z,1008.69
2016-08-20T11:53:53.015Z,1008.67
2016-08-20T11:54:52.773Z,1008.75
2016-08-20T11:55:52.728Z,1008.79
2016-08-20T11:56:52.693Z,1008.75
2016-08-20T11:57:52.656Z,1008.71
2016-08-20T11:58:52.599Z,1008.7
2016-08-20T11:59:52.564Z,1008.64
2016-08-20T12:00:52.515Z,1008.64
2016-08-20T12:01:52.675Z,1008.54
2016-08-20T12:02:52.434Z,1008.55
2016-08-20T12:03:52.395Z,1008.51
2016-08-20T12:04:52.340Z,1008.54
2016-08-20T12:05:52.302Z,1008.56
2016-08-20T12:06:52.260Z,1008.51
2016-08-20T12:07:52.215Z,1008.51
2016-08-20T12:08:52.376Z,1008.43